Time;durP1;ratioP1;P1;durP2;ratioP2;P2;SDS_P1;SDS_P2;PMS_P1;PMS_P2;Temp;Humidity;BMP_temperature;BMP_pressure;BME280_temperature;BME280_humidity;BME280_pressure;Samples;Min_cycle;Max_cycle;Signal;HPM_P1;HPM_P2
2023/03/01 00:00:21;;;;;;;11.33;9.33;;;;;;;-0.71;45.45;100423.34;10444194;28;20221;-59
2023/03/01 00:05:22;;;;;;;11.63;9.17;;;;;;;-0.86;45.84;100397.06;10438058;28;20233;-60
2023/03/01 00:10:26;;;;;;;12.20;9.97;;;;;;;-1.72;46.46;100575.44;10437634;28;20759;-60
2023/03/01 00:15:28;;;;;;;13.27;9.47;;;;;;;-0.36;45.01;100346.69;10450150;28;20234;-60
2023/03/01 00:20:29;;;;;;;11.03;8.90;;;;;;;-1.24;46.49;100479.06;10451393;28;20237;-60
2023/03/01 00:25:31;;;;;;;12.30;10.00;;;;;;;-0.32;45.63;100309.53;10442302;28;20235;-60
2023/03/01 00:30:33;;;;;;;12.73;10.00;;;;;;;-1.00;45.92;100412.84;10447331;28;20241;-61
2023/03/01 00:35:35;;;;;;;13.03;9.50;;;;;;;-0.73;45.88;100365.63;10443096;28;20237;-60
2023/03/01 00:40:37;;;;;;;11.83;10.13;;;;;;;-0.30;45.43;100291.91;10444159;28;20241;-60
2023/03/01 00:45:39;;;;;;;14.63;10.37;;;;;;;-0.95;46.42;100400.28;10440301;28;20255;-60
2023/03/01 00:50:40;;;;;;;11.10;8.63;;;;;;;-0.34;45.02;100310.59;10453235;28;20228;-60
2023/03/01 00:55:42;;;;;;;12.00;9.10;;;;;;;-0.81;45.75;100376.59;10441966;28;20236;-60
2023/03/01 01:00:44;;;;;;;11.67;9.10;;;;;;;-0.24;45.59;100272.22;10445974;28;20721;-61
2023/03/01 01:05:45;;;;;;;11.80;10.00;;;;;;;-1.66;46.81;100501.63;10440358;28;20240;-61
2023/03/01 01:10:47;;;;;;;13.27;9.77;;;;;;;-1.25;46.17;100456.34;10443631;28;20244;-61
2023/03/01 01:15:49;;;;;;;13.40;9.60;;;;;;;-0.29;45.54;100255.91;10448313;28;20225;-61
2023/03/01 01:20:51;;;;;;;14.23;10.87;;;;;;;-2.13;47.76;100529.56;10441618;28;20229;-61
2023/03/01 01:25:52;;;;;;;13.47;10.03;;;;;;;-1.65;47.54;100429.84;10444017;28;20239;-60
2023/03/01 01:30:54;;;;;;;14.63;11.40;;;;;;;-1.07;47.05;100312.56;10441624;28;20242;-60
2023/03/01 01:35:56;;;;;;;14.83;11.73;;;;;;;-0.98;47.14;100277.81;10438221;28;20772;-64
2023/03/01 01:40:59;;;;;;;12.77;10.57;;;;;;;-1.45;46.91;100364.78;10426721;28;20329;-60
2023/03/01 01:46:12;;;;;;;13.13;10.87;;;;;;;-1.65;47.92;100381.72;10421481;28;20218;-61
2023/03/01 01:51:19;;;;;;;12.93;10.37;;;;;;;-2.53;48.48;100517.75;10388843;28;20271;-60
2023/03/01 01:56:24;;;;;;;11.63;9.70;;;;;;;-1.19;47.33;100259.00;10420617;28;20199;-60
2023/03/01 02:01:26;;;;;;;11.97;9.70;;;;;;;-2.13;48.49;100403.69;10412731;28;20230;-60
2023/03/01 02:06:33;;;;;;;13.77;10.47;;;;;;;-1.58;48.04;100314.81;10413937;28;20224;-60
2023/03/01 02:11:37;;;;;;;11.77;10.00;;;;;;;-1.35;48.25;100242.50;10399871;28;20222;-60
2023/03/01 02:16:39;;;;;;;11.93;10.27;;;;;;;-2.64;49.39;100470.31;10410825;28;20262;-60
2023/03/01 02:22:15;;;;;;;12.97;9.27;;;;;;;-1.49;47.77;100264.38;10404674;28;20949;-60
2023/03/01 02:27:24;;;;;;;12.23;10.20;;;;;;;-1.20;47.96;100201.31;10383958;28;20317;-60
2023/03/01 02:32:26;;;;;;;12.93;10.17;;;;;;;-1.02;48.06;100136.25;10412485;28;20861;-61
2023/03/01 02:37:28;;;;;;;13.20;10.23;;;;;;;-2.34;48.52;100390.03;10421030;28;20716;-60
2023/03/01 02:42:46;;;;;;;12.27;10.13;;;;;;;-1.75;49.05;100258.94;10410282;28;20229;-60
2023/03/01 02:47:47;;;;;;;13.10;10.83;;;;;;;-2.09;48.98;100315.19;10416090;28;20232;-61
2023/03/01 02:53:32;;;;;;;13.30;9.47;;;;;;;-2.45;48.98;100381.06;10409017;28;20236;-60
2023/03/01 02:58:44;;;;;;;12.47;10.73;;;;;;;-2.11;49.06;100283.78;10397415;28;20204;-61
2023/03/01 03:03:46;;;;;;;12.20;10.00;;;;;;;-1.54;47.61;100237.56;10403197;28;20250;-60
2023/03/01 03:08:48;;;;;;;11.47;10.23;;;;;;;-1.27;47.42;100165.91;10411599;28;20629;-60
2023/03/01 03:13:51;;;;;;;16.07;11.60;;;;;;;-2.16;49.43;100270.09;10412376;28;20234;-60
2023/03/01 03:18:53;;;;;;;14.60;11.43;;;;;;;-1.61;48.34;100163.63;10410791;28;20216;-61
2023/03/01 03:23:55;;;;;;;13.90;11.70;;;;;;;-2.44;50.08;100276.13;10407055;28;20891;-61
2023/03/01 03:29:00;;;;;;;14.03;10.47;;;;;;;-2.24;49.28;100267.09;10405103;28;20956;-60
2023/03/01 03:34:02;;;;;;;13.20;10.43;;;;;;;-2.01;49.56;100194.94;10412269;28;20992;-61
2023/03/01 03:39:04;;;;;;;14.77;10.50;;;;;;;-2.13;49.24;100211.41;10405754;28;20719;-60
2023/03/01 03:44:06;;;;;;;14.10;11.23;;;;;;;-2.18;49.12;100198.56;10403520;28;20230;-60
2023/03/01 03:49:08;;;;;;;14.47;10.57;;;;;;;-3.17;50.50;100393.63;10414739;28;20211;-60
2023/03/01 03:54:10;;;;;;;12.30;10.57;;;;;;;-1.82;49.55;100128.22;10412094;28;20241;-60
2023/03/01 03:59:12;;;;;;;13.43;11.47;;;;;;;-2.01;49.38;100146.88;10417265;28;20739;-61
2023/03/01 04:04:13;;;;;;;14.93;11.80;;;;;;;-2.13;49.73;100165.03;10407020;28;20244;-61
2023/03/01 04:09:15;;;;;;;14.20;12.23;;;;;;;-2.33;49.60;100205.56;10407063;28;20203;-61
2023/03/01 04:14:17;;;;;;;13.90;11.73;;;;;;;-1.93;49.16;100160.38;10409866;28;20235;-61
2023/03/01 04:19:18;;;;;;;14.40;11.73;;;;;;;-2.14;49.30;100183.47;10413265;28;20856;-61
2023/03/01 04:24:22;;;;;;;12.80;11.40;;;;;;;-2.38;49.63;100230.38;10409911;28;20225;-60
2023/03/01 04:29:23;;;;;;;14.67;11.47;;;;;;;-2.59;49.86;100240.28;10418688;28;20860;-60
2023/03/01 04:34:26;;;;;;;15.43;12.60;;;;;;;-2.80;50.93;100213.56;10398698;28;20231;-66
2023/03/01 04:39:28;;;;;;;16.00;12.57;;;;;;;-3.08;50.76;100280.56;10410082;28;20213;-60
2023/03/01 04:44:29;;;;;;;15.67;12.43;;;;;;;-2.32;51.21;100102.38;10402544;28;20738;-60
2023/03/01 04:49:31;;;;;;;15.80;12.67;;;;;;;-3.41;51.73;100302.38;10413026;28;20209;-59
2023/03/01 04:54:35;;;;;;;14.23;12.27;;;;;;;-2.93;51.05;100213.41;10392785;28;20224;-62
2023/03/01 04:59:37;;;;;;;16.60;11.97;;;;;;;-3.55;52.31;100302.22;10441250;28;20225;-59
2023/03/01 05:04:38;;;;;;;14.77;12.13;;;;;;;-2.77;51.57;100140.88;10444484;28;20278;-59
2023/03/01 05:09:40;;;;;;;16.37;12.83;;;;;;;-3.24;51.91;100241.25;10426777;28;20248;-60
2023/03/01 05:14:42;;;;;;;13.80;11.07;;;;;;;-2.99;51.60;100193.66;10434936;28;20241;-58
2023/03/01 05:19:44;;;;;;;14.67;12.33;;;;;;;-1.78;50.30;99986.25;10430104;28;20846;-57
2023/03/01 05:24:46;;;;;;;15.80;12.87;;;;;;;-2.03;49.74;100060.41;10432660;28;20856;-59
2023/03/01 05:29:48;;;;;;;15.13;12.40;;;;;;;-2.19;50.75;100043.94;10425874;28;20747;-58
2023/03/01 05:34:51;;;;;;;17.47;13.20;;;;;;;-2.90;51.41;100187.88;10434101;28;20242;-59
2023/03/01 05:39:53;;;;;;;16.00;13.17;;;;;;;-2.97;51.01;100197.00;10429893;28;20233;-58
2023/03/01 05:44:55;;;;;;;18.60;12.90;;;;;;;-2.63;51.22;100105.16;10430903;28;20629;-57
2023/03/01 05:49:56;;;;;;;18.20;14.10;;;;;;;-3.59;52.15;100275.38;10429701;28;20235;-56
2023/03/01 05:54:58;;;;;;;19.40;12.50;;;;;;;-2.78;50.93;100123.44;10428988;28;20246;-56
2023/03/01 06:00:00;;;;;;;16.40;12.57;;;;;;;-2.84;51.87;100126.44;10414375;28;20684;-58
2023/03/01 06:05:02;;;;;;;16.03;12.70;;;;;;;-2.11;50.57;99978.75;10426465;28;20606;-57
2023/03/01 06:10:05;;;;;;;17.93;12.87;;;;;;;-2.72;51.70;100075.94;10420331;28;20644;-57
2023/03/01 06:15:09;;;;;;;17.80;13.50;;;;;;;-2.54;51.71;100034.72;10431853;28;20247;-59
2023/03/01 06:20:17;;;;;;;17.60;13.87;;;;;;;-2.54;51.92;100039.09;10423252;28;20240;-57
2023/03/01 06:25:22;;;;;;;16.67;13.60;;;;;;;-2.99;52.10;100116.88;10428483;28;20225;-57
2023/03/01 06:30:25;;;;;;;21.13;13.87;;;;;;;-2.86;52.30;100110.00;10424983;28;20228;-58
2023/03/01 06:35:29;;;;;;;19.20;14.33;;;;;;;-2.75;51.41;100128.53;10432565;28;20231;-59
2023/03/01 06:40:32;;;;;;;17.90;14.63;;;;;;;-2.20;50.54;100053.59;10426133;28;20249;-59
2023/03/01 06:45:33;;;;;;;19.13;14.80;;;;;;;-2.00;49.87;100052.38;10420048;28;20843;-59
2023/03/01 06:50:35;;;;;;;20.00;14.33;;;;;;;-1.82;49.49;100029.34;10429481;28;20229;-59
2023/03/01 06:55:37;;;;;;;18.63;14.30;;;;;;;-1.88;50.67;100052.50;10429961;28;20313;-60
2023/03/01 07:00:40;;;;;;;16.13;13.50;;;;;;;-1.21;49.82;99966.75;10428885;28;20239;-60
2023/03/01 07:05:42;;;;;;;16.97;14.93;;;;;;;-1.18;49.61;99995.44;10428861;28;20260;-58
2023/03/01 07:10:44;;;;;;;17.10;13.50;;;;;;;-2.09;50.41;100172.72;10428002;28;20232;-60
2023/03/01 07:15:46;;;;;;;21.73;14.60;;;;;;;-0.68;48.70;99974.53;10430111;28;20251;-58
2023/03/01 07:20:48;;;;;;;17.90;13.90;;;;;;;-1.14;48.85;100081.88;10415874;28;20248;-59
2023/03/01 07:25:54;;;;;;;18.30;14.33;;;;;;;-1.07;48.74;100081.38;10441907;28;20230;-58
2023/03/01 07:31:01;;;;;;;21.13;14.40;;;;;;;-0.05;48.04;99924.53;10439730;28;20230;-58
2023/03/01 07:36:04;;;;;;;18.10;13.47;;;;;;;-1.55;49.15;100199.13;10438161;28;20224;-59
2023/03/01 07:41:06;;;;;;;18.40;14.53;;;;;;;-1.94;49.38;100268.84;10431234;28;20232;-60
2023/03/01 07:46:07;;;;;;;17.57;13.60;;;;;;;-0.00;47.86;99958.41;10445402;28;20227;-59
2023/03/01 07:51:10;;;;;;;18.70;14.33;;;;;;;-0.86;49.33;100039.69;10435017;28;20845;-58
2023/03/01 07:56:14;;;;;;;19.00;14.73;;;;;;;-0.31;49.13;99955.38;10434080;28;20246;-57
2023/03/01 08:01:18;;;;;;;19.90;14.77;;;;;;;-0.02;48.33;99942.72;10440127;28;20243;-58
2023/03/01 08:06:20;;;;;;;21.53;14.67;;;;;;;-0.47;48.28;100089.69;10405574;28;20245;-60
2023/03/01 08:11:21;;;;;;;21.43;14.97;;;;;;;-0.12;48.13;99986.44;10378764;28;20231;-58
2023/03/01 08:16:23;;;;;;;19.07;14.60;;;;;;;-0.76;49.26;100079.34;10391404;28;20239;-59
2023/03/01 08:21:25;;;;;;;20.33;15.40;;;;;;;-0.47;48.85;100032.69;10390801;28;20617;-57
2023/03/01 08:26:27;;;;;;;18.43;14.57;;;;;;;-1.06;48.52;100179.41;10391642;28;20741;-57
2023/03/01 08:31:32;;;;;;;18.70;13.73;;;;;;;1.02;46.82;99875.25;10396018;28;20633;-59
2023/03/01 08:36:39;;;;;;;19.30;14.67;;;;;;;-0.17;47.55;100064.84;10401030;28;20262;-59
2023/03/01 08:41:42;;;;;;;21.73;14.93;;;;;;;0.61;46.96;99934.59;10394870;28;20715;-60
2023/03/01 08:46:45;;;;;;;19.73;14.47;;;;;;;0.08;47.75;100040.28;10383708;28;20234;-60
2023/03/01 08:51:47;;;;;;;19.90;14.33;;;;;;;0.89;46.17;99961.50;10383658;28;20239;-59
2023/03/01 08:56:49;;;;;;;19.00;14.83;;;;;;;0.81;46.57;99986.59;10382754;28;20235;-60
2023/03/01 09:01:51;;;;;;;18.07;14.87;;;;;;;1.32;45.58;100022.34;10391054;28;20241;-58
2023/03/01 09:06:53;;;;;;;21.73;14.73;;;;;;;0.87;45.83;100064.38;10392114;28;20229;-60
2023/03/01 09:11:54;;;;;;;20.37;14.40;;;;;;;1.35;45.56;100011.53;10389907;28;20251;-60
2023/03/01 09:16:56;;;;;;;24.20;15.53;;;;;;;1.26;44.65;100117.69;10388240;28;20231;-60
2023/03/01 09:21:58;;;;;;;17.20;14.97;;;;;;;1.09;44.69;100124.22;10388952;28;20266;-60
2023/03/01 09:27:00;;;;;;;17.80;13.43;;;;;;;1.56;44.54;100055.69;10384263;28;20329;-60
2023/03/01 09:32:02;;;;;;;19.83;15.47;;;;;;;2.53;42.55;100017.13;10393810;28;20237;-59
2023/03/01 09:37:04;;;;;;;18.63;15.17;;;;;;;0.88;44.97;100210.94;10386076;28;20232;-59
2023/03/01 09:42:06;;;;;;;17.73;14.33;;;;;;;1.05;44.80;100200.03;10385831;28;20228;-60
2023/03/01 09:47:20;;;;;;;19.47;14.50;;;;;;;2.33;43.91;100052.22;10392826;28;20219;-64
2023/03/01 09:52:34;;;;;;;17.63;13.90;;;;;;;2.34;43.86;100052.09;10389441;28;20243;-58
2023/03/01 09:57:43;;;;;;;20.67;14.57;;;;;;;1.84;43.40;100174.91;10388641;28;20236;-59
2023/03/01 10:02:50;;;;;;;18.73;14.43;;;;;;;2.46;43.33;100066.13;10390731;28;20306;-59
2023/03/01 10:08:17;;;;;;;18.67;14.63;;;;;;;2.29;43.96;100093.06;10384096;28;20240;-58
2023/03/01 10:13:43;;;;;;;17.90;14.07;;;;;;;2.58;42.62;100122.41;10380472;28;20573;-60
2023/03/01 10:18:48;;;;;;;18.57;15.33;;;;;;;3.89;41.54;100013.59;10381552;28;20237;-60
2023/03/01 10:23:53;;;;;;;18.20;13.77;;;;;;;3.06;42.37;100074.44;10387394;28;20720;-60
2023/03/01 10:29:07;;;;;;;17.77;14.07;;;;;;;3.37;42.22;100008.38;10384276;28;20747;-59
2023/03/01 10:34:20;;;;;;;17.97;14.33;;;;;;;2.51;42.00;100174.91;10390728;28;20229;-58
2023/03/01 10:39:24;;;;;;;19.67;14.77;;;;;;;3.24;42.00;100060.63;10362829;28;20232;-60
2023/03/01 10:44:43;;;;;;;18.47;14.37;;;;;;;2.41;42.74;100163.38;10388406;28;20233;-59
2023/03/01 10:49:52;;;;;;;15.83;13.33;;;;;;;3.20;41.98;100060.06;10390349;28;20665;-60
2023/03/01 10:55:19;;;;;;;16.23;13.63;;;;;;;4.64;41.08;99970.75;10381214;28;20250;-58
2023/03/01 11:06:31;;;;;;;17.30;13.77;;;;;;;3.06;43.22;99962.56;10504137;27;20353;-59
2023/03/01 11:11:34;;;;;;;17.80;14.20;;;;;;;2.53;43.05;100154.50;10416700;28;20240;-61
2023/03/01 11:16:39;;;;;;;16.80;14.23;;;;;;;2.17;43.11;100169.66;10416343;28;20234;-61
2023/03/01 11:21:52;;;;;;;17.50;13.47;;;;;;;2.36;43.02;100131.22;10415708;28;20236;-60
2023/03/01 11:26:55;;;;;;;17.67;13.77;;;;;;;2.55;43.59;100093.59;10418792;28;20240;-60
2023/03/01 11:32:02;;;;;;;17.90;14.70;;;;;;;3.45;41.98;100029.72;10413498;28;20232;-61
2023/03/01 11:37:29;;;;;;;16.57;12.73;;;;;;;3.28;42.46;100062.06;10413987;28;20258;-59
2023/03/01 11:42:51;;;;;;;19.23;14.30;;;;;;;3.78;41.78;99988.06;10416083;28;20224;-60
2023/03/01 11:48:24;;;;;;;16.77;13.73;;;;;;;3.44;42.17;100006.03;10408026;28;20684;-60
2023/03/01 11:53:29;;;;;;;15.33;13.37;;;;;;;3.35;41.96;100042.06;10444780;28;20224;-61
2023/03/01 11:58:55;;;;;;;17.73;14.17;;;;;;;4.19;41.42;99930.56;10449380;28;20247;-61
2023/03/01 12:04:21;;;;;;;19.93;14.90;;;;;;;4.77;40.70;99889.91;10451315;28;20289;-61
2023/03/01 12:09:42;;;;;;;18.80;14.80;;;;;;;4.23;40.98;99986.75;10456505;28;20293;-61
2023/03/01 12:15:08;;;;;;;20.90;15.07;;;;;;;4.62;40.88;99920.50;10458675;28;20710;-61
2023/03/01 12:20:35;;;;;;;17.30;13.27;;;;;;;4.36;41.45;99958.19;10427627;28;20235;-61
2023/03/01 12:25:43;;;;;;;20.00;14.37;;;;;;;4.55;40.77;99952.03;10434298;28;20222;-60
2023/03/01 12:31:17;;;;;;;21.13;14.30;;;;;;;4.94;40.87;99924.63;10441259;28;20243;-61
2023/03/01 12:36:31;;;;;;;20.57;15.10;;;;;;;5.08;40.53;99884.38;10418296;28;20228;-60
2023/03/01 12:41:47;;;;;;;18.00;14.10;;;;;;;5.31;39.99;99866.25;10433565;28;20282;-61
2023/03/01 12:47:15;;;;;;;17.57;13.50;;;;;;;4.38;40.84;99937.69;10432028;28;20232;-61
2023/03/01 12:53:02;;;;;;;17.20;14.40;;;;;;;4.76;40.26;99890.06;10421400;28;20452;-60
2023/03/01 12:58:34;;;;;;;17.03;14.37;;;;;;;4.36;41.02;99920.28;10348184;28;20232;-61
2023/03/01 13:03:59;;;;;;;19.37;13.60;;;;;;;5.00;40.92;99863.06;10386180;28;20690;-61
2023/03/01 13:09:25;;;;;;;15.73;13.23;;;;;;;4.63;40.77;99916.06;10378947;28;20287;-60
2023/03/01 13:14:43;;;;;;;19.97;13.93;;;;;;;4.98;40.28;99911.91;10423417;28;20238;-61
2023/03/01 13:19:57;;;;;;;15.27;13.27;;;;;;;4.15;40.99;99958.31;10418288;28;20778;-60
2023/03/01 13:25:16;;;;;;;17.33;13.87;;;;;;;4.32;41.21;99909.13;10431160;28;20278;-60
2023/03/01 13:30:33;;;;;;;52.23;33.30;;;;;;;4.71;40.67;99877.25;10426296;28;20255;-60
2023/03/01 13:35:42;;;;;;;18.63;15.90;;;;;;;5.30;40.24;99835.41;10431295;28;20622;-60
2023/03/01 13:40:44;;;;;;;16.87;13.40;;;;;;;4.31;40.65;99943.69;10431161;28;20835;-60
2023/03/01 13:45:46;;;;;;;16.63;12.97;;;;;;;5.75;39.62;99848.84;10445358;28;20266;-60
2023/03/01 13:50:54;;;;;;;20.23;16.97;;;;;;;5.95;39.48;99802.53;10423616;28;20863;-58
2023/03/01 13:56:01;;;;;;;16.10;14.17;;;;;;;5.12;39.93;99914.09;10425497;28;20263;-60
2023/03/01 14:01:04;;;;;;;19.47;17.37;;;;;;;5.02;40.05;99921.28;10429890;28;20235;-60
2023/03/01 14:06:07;;;;;;;18.97;14.63;;;;;;;5.65;39.25;99867.47;10434352;28;20458;-59
2023/03/01 14:11:36;;;;;;;19.33;16.37;;;;;;;5.11;39.70;99884.06;10429717;28;20235;-60
2023/03/01 14:17:04;;;;;;;24.97;14.40;;;;;;;4.77;39.91;99923.56;10426532;28;20253;-60
2023/03/01 14:22:15;;;;;;;19.60;12.93;;;;;;;4.84;39.74;99900.78;10433840;28;20617;-61
2023/03/01 14:27:17;;;;;;;16.17;13.83;;;;;;;5.72;39.74;99798.69;10425571;28;20240;-61
2023/03/01 14:32:26;;;;;;;14.63;12.37;;;;;;;5.08;40.04;99881.75;10427344;28;20224;-60
2023/03/01 14:37:29;;;;;;;16.67;13.27;;;;;;;5.10;39.94;99889.56;10414640;28;20581;-60
2023/03/01 14:42:36;;;;;;;14.13;11.87;;;;;;;5.48;39.76;99830.09;10385024;28;20227;-61
2023/03/01 14:47:39;;;;;;;15.00;12.13;;;;;;;4.77;40.24;99919.09;10426174;28;20249;-61
2023/03/01 14:52:46;;;;;;;14.27;11.83;;;;;;;5.12;39.96;99867.19;10429304;28;20237;-60
2023/03/01 14:57:49;;;;;;;18.77;12.37;;;;;;;5.26;39.68;99849.94;10420492;28;20247;-60
2023/03/01 15:02:54;;;;;;;15.77;12.23;;;;;;;5.42;39.52;99857.25;10422262;28;20239;-61
2023/03/01 15:07:59;;;;;;;20.73;13.20;;;;;;;6.15;39.22;99768.66;10430897;28;20936;-61
2023/03/01 15:13:20;;;;;;;16.40;11.80;;;;;;;6.14;39.07;99811.31;10426217;28;20230;-61
2023/03/01 15:18:31;;;;;;;15.43;12.20;;;;;;;5.22;39.95;99919.38;10421736;28;20766;-61
2023/03/01 15:23:33;;;;;;;16.77;12.00;;;;;;;6.27;39.08;99819.72;10425082;28;20607;-61
2023/03/01 15:28:42;;;;;;;14.23;12.73;;;;;;;5.86;39.31;99876.00;10424147;28;20315;-60
2023/03/01 15:33:47;;;;;;;15.80;13.33;;;;;;;5.26;39.93;99923.41;10417200;28;20228;-61
2023/03/01 15:38:57;;;;;;;14.90;12.10;;;;;;;6.34;39.03;99809.31;10423175;28;20240;-60
2023/03/01 15:44:13;;;;;;;14.47;12.70;;;;;;;5.41;39.93;99916.63;10427835;28;20316;-64
2023/03/01 15:49:25;;;;;;;14.63;12.27;;;;;;;5.88;39.33;99855.44;10425985;28;20632;-57
2023/03/01 15:54:27;;;;;;;15.63;13.07;;;;;;;4.86;39.89;99964.28;10427579;28;20278;-56
2023/03/01 15:59:29;;;;;;;13.53;11.90;;;;;;;5.06;40.04;99918.16;10432322;28;20236;-56
2023/03/01 16:04:31;;;;;;;16.03;13.17;;;;;;;5.73;39.52;99845.50;10431304;28;20265;-58
2023/03/01 16:09:32;;;;;;;14.93;11.93;;;;;;;5.39;39.93;99865.53;10428517;28;20773;-60
2023/03/01 16:14:34;;;;;;;15.40;12.80;;;;;;;5.44;39.58;99862.44;10433360;28;20239;-60
2023/03/01 16:19:40;;;;;;;15.90;12.90;;;;;;;5.28;39.95;99892.25;10432959;28;20718;-60
2023/03/01 16:24:42;;;;;;;15.73;13.13;;;;;;;5.40;39.79;99884.91;10433130;28;20274;-61
2023/03/01 16:29:44;;;;;;;15.63;12.33;;;;;;;5.07;40.00;99933.09;10425923;28;20236;-59
2023/03/01 16:34:49;;;;;;;17.00;12.50;;;;;;;5.23;40.12;99891.84;10434215;28;20718;-59
2023/03/01 16:39:50;;;;;;;15.13;12.87;;;;;;;5.25;39.94;99856.25;10432938;28;20236;-59
2023/03/01 16:44:56;;;;;;;16.30;13.07;;;;;;;5.24;40.06;99862.53;10426386;28;20236;-60
2023/03/01 16:49:57;;;;;;;137.20;82.63;;;;;;;5.75;39.64;99806.34;10432769;28;20765;-59
2023/03/01 16:54:59;;;;;;;17.47;14.27;;;;;;;5.13;40.19;99876.84;10434052;28;20318;-59
2023/03/01 17:00:04;;;;;;;17.27;12.60;;;;;;;4.86;40.28;99866.16;10431560;28;20231;-60
2023/03/01 17:05:06;;;;;;;16.90;12.57;;;;;;;4.94;39.98;99892.81;10429694;28;20262;-60
2023/03/01 17:10:09;;;;;;;18.13;13.20;;;;;;;5.14;39.29;99899.69;10430195;28;20228;-60
2023/03/01 17:15:11;;;;;;;16.40;12.07;;;;;;;5.64;39.55;99821.53;10423124;28;20669;-61
2023/03/01 17:20:13;;;;;;;18.30;14.40;;;;;;;5.97;39.33;99803.22;10409991;28;20263;-60
2023/03/01 17:25:15;;;;;;;14.27;11.17;;;;;;;5.02;40.02;99900.06;10417334;28;20236;-60
2023/03/01 17:30:17;;;;;;;18.33;13.17;;;;;;;6.07;38.87;99788.00;10418844;28;20328;-60
2023/03/01 17:35:18;;;;;;;17.30;13.67;;;;;;;6.20;38.62;99811.53;10418872;28;20765;-66
2023/03/01 17:40:20;;;;;;;22.67;18.60;;;;;;;4.83;39.57;99976.03;10412400;28;20616;-67
2023/03/01 17:45:22;;;;;;;15.43;11.37;;;;;;;5.75;38.90;99851.50;10410986;28;20221;-61
2023/03/01 17:50:23;;;;;;;20.40;12.23;;;;;;;4.75;40.21;99910.44;10410558;28;20247;-60
2023/03/01 17:55:25;;;;;;;14.53;10.97;;;;;;;5.28;39.17;99890.44;10415029;28;20236;-60
2023/03/01 18:00:27;;;;;;;16.70;11.53;;;;;;;5.20;39.60;99885.03;10415078;28;20233;-60
2023/03/01 18:05:34;;;;;;;16.30;13.37;;;;;;;5.61;38.98;99853.69;10412974;28;20236;-60
2023/03/01 18:10:36;;;;;;;18.60;13.20;;;;;;;4.55;40.15;99981.19;10415302;28;20229;-61
2023/03/01 18:15:38;;;;;;;13.50;11.47;;;;;;;4.55;40.42;99938.78;10430949;28;20887;-60
2023/03/01 18:20:39;;;;;;;15.50;12.33;;;;;;;5.11;39.81;99876.13;10430220;28;20240;-61
2023/03/01 18:25:41;;;;;;;18.47;15.23;;;;;;;4.30;40.46;99953.41;10425646;28;20232;-62
2023/03/01 18:30:43;;;;;;;19.53;15.00;;;;;;;3.84;40.98;99999.91;10421411;28;20235;-60
2023/03/01 18:35:44;;;;;;;39.37;27.50;;;;;;;4.54;40.46;99897.38;10426570;28;20240;-59
2023/03/01 18:40:46;;;;;;;43.40;28.27;;;;;;;5.10;39.62;99849.75;10424373;28;20233;-59
2023/03/01 18:45:54;;;;;;;62.00;47.20;;;;;;;4.68;40.40;99898.75;10423076;28;20225;-59
2023/03/01 18:50:56;;;;;;;22.00;17.23;;;;;;;3.93;41.01;99964.66;10427660;28;20293;-59
2023/03/01 18:56:00;;;;;;;14.77;11.70;;;;;;;2.94;42.26;100009.38;10425890;28;20781;-60
2023/03/01 19:01:05;;;;;;;14.47;10.53;;;;;;;3.69;41.52;99898.88;10422404;28;20235;-58
2023/03/01 19:06:08;;;;;;;13.07;10.70;;;;;;;3.08;42.20;99950.03;10430027;28;20251;-60
2023/03/01 19:11:11;;;;;;;13.83;10.77;;;;;;;3.04;42.25;99928.31;10416756;28;20795;-60
2023/03/01 19:16:16;;;;;;;13.57;10.53;;;;;;;3.45;41.54;99904.53;10426687;28;20239;-60
2023/03/01 19:21:20;;;;;;;15.60;11.00;;;;;;;3.67;41.25;99879.66;10419121;28;20232;-60
2023/03/01 19:26:26;;;;;;;15.70;11.03;;;;;;;3.30;41.79;99911.16;10429578;28;20270;-60
2023/03/01 19:31:29;;;;;;;13.37;11.17;;;;;;;3.20;42.29;99892.63;10434696;28;20231;-60
2023/03/01 19:36:31;;;;;;;15.13;12.10;;;;;;;3.90;41.24;99813.19;10431023;28;20319;-62
2023/03/01 19:41:34;;;;;;;16.03;12.97;;;;;;;3.55;41.65;99836.59;10434498;28;20230;-62
2023/03/01 19:46:36;;;;;;;19.97;15.13;;;;;;;2.56;42.50;99962.34;10430369;28;20258;-63
2023/03/01 19:51:38;;;;;;;31.47;21.03;;;;;;;3.85;41.27;99795.09;10427490;28;20236;-63
2023/03/01 19:56:40;;;;;;;14.83;11.80;;;;;;;3.13;42.25;99865.03;10428841;28;20282;-61
2023/03/01 20:01:41;;;;;;;18.00;12.60;;;;;;;3.33;41.41;99882.63;10424904;28;20228;-62
2023/03/01 20:06:45;;;;;;;16.90;13.03;;;;;;;2.93;41.83;99938.13;10417333;28;20228;-62
2023/03/01 20:11:47;;;;;;;15.90;12.17;;;;;;;4.37;40.92;99732.03;10424461;28;20903;-58
2023/03/01 20:16:48;;;;;;;17.87;12.50;;;;;;;3.04;42.03;99906.31;10426277;28;20255;-62
2023/03/01 20:21:50;;;;;;;14.23;11.20;;;;;;;3.22;41.78;99856.28;10427515;28;20239;-60
2023/03/01 20:26:51;;;;;;;14.60;11.03;;;;;;;2.43;43.11;99912.31;10419686;28;20236;-62
2023/03/01 20:31:53;;;;;;;14.77;11.30;;;;;;;3.33;42.83;99741.59;10428255;28;20239;-60
2023/03/01 20:36:55;;;;;;;16.33;12.43;;;;;;;1.96;44.36;99913.50;10423991;28;20239;-60
2023/03/01 20:41:57;;;;;;;20.90;16.77;;;;;;;2.05;44.14;99882.88;10428609;28;20259;-59
2023/03/01 20:46:58;;;;;;;14.73;10.73;;;;;;;3.06;43.59;99751.88;10425678;28;20228;-62
2023/03/01 20:52:00;;;;;;;14.53;10.67;;;;;;;2.91;43.44;99754.06;10432867;28;20271;-62
2023/03/01 20:57:02;;;;;;;15.60;10.53;;;;;;;3.38;42.98;99705.84;10428932;28;20240;-59
2023/03/01 21:02:03;;;;;;;15.60;12.47;;;;;;;1.63;44.53;99930.25;10422635;28;20928;-61
2023/03/01 21:07:05;;;;;;;13.67;11.17;;;;;;;3.15;43.30;99710.53;10425437;28;20242;-58
2023/03/01 21:12:09;;;;;;;15.77;11.50;;;;;;;1.59;44.74;99908.56;10420920;28;20664;-61
2023/03/01 21:17:13;;;;;;;16.23;11.97;;;;;;;1.13;45.25;99948.22;10427301;28;20240;-62
2023/03/01 21:22:16;;;;;;;14.40;11.63;;;;;;;1.24;45.29;99904.25;10422967;28;20243;-62
2023/03/01 21:27:18;;;;;;;19.30;13.57;;;;;;;1.75;45.31;99805.25;10412774;28;20243;-61
2023/03/01 21:32:19;;;;;;;17.07;13.60;;;;;;;1.41;45.55;99839.66;10420419;28;20255;-62
2023/03/01 21:37:27;;;;;;;16.33;12.10;;;;;;;1.57;45.30;99819.94;10416332;28;20236;-62
2023/03/01 21:42:31;;;;;;;21.20;13.47;;;;;;;1.46;45.72;99820.81;10417806;28;20254;-60
2023/03/01 21:47:35;;;;;;;15.90;11.63;;;;;;;1.60;45.76;99740.56;10418240;28;20736;-61
2023/03/01 21:52:36;;;;;;;14.03;11.77;;;;;;;1.95;45.07;99711.22;10427745;28;20855;-61
2023/03/01 21:57:42;;;;;;;15.57;12.73;;;;;;;1.42;45.76;99783.31;10426383;28;20241;-60
2023/03/01 22:02:44;;;;;;;16.27;12.60;;;;;;;1.18;46.54;99772.06;10428756;28;20258;-59
2023/03/01 22:07:45;;;;;;;16.27;12.43;;;;;;;1.40;45.46;99781.75;10427412;28;20243;-59
2023/03/01 22:12:48;;;;;;;16.70;13.03;;;;;;;1.12;46.50;99798.91;10426152;28;20757;-60
2023/03/01 22:17:49;;;;;;;17.87;12.63;;;;;;;1.40;45.93;99755.38;10423936;28;20653;-58
2023/03/01 22:22:51;;;;;;;15.93;12.77;;;;;;;1.00;46.17;99806.84;10417332;28;20448;-55
2023/03/01 22:27:53;;;;;;;17.37;13.53;;;;;;;0.74;46.81;99805.44;10413858;28;20240;-61
2023/03/01 22:32:54;;;;;;;60.03;30.43;;;;;;;0.61;47.36;99792.38;10420706;28;20251;-61
2023/03/01 22:37:56;;;;;;;19.10;13.63;;;;;;;1.19;46.69;99705.22;10419580;28;20254;-61
2023/03/01 22:42:58;;;;;;;16.20;12.80;;;;;;;0.94;47.21;99749.38;10416501;28;20404;-61
2023/03/01 22:48:00;;;;;;;16.97;13.47;;;;;;;1.06;47.07;99722.00;10422621;28;20236;-60
2023/03/01 22:53:01;;;;;;;15.93;13.50;;;;;;;0.98;47.21;99723.59;10418485;28;20863;-62
2023/03/01 22:58:03;;;;;;;17.73;13.23;;;;;;;0.21;47.53;99856.81;10420569;28;20242;-62
2023/03/01 23:03:05;;;;;;;18.40;13.10;;;;;;;0.83;47.28;99736.19;10423649;28;20246;-61
2023/03/01 23:08:06;;;;;;;16.17;13.10;;;;;;;1.08;47.16;99661.28;10422101;28;20314;-61
2023/03/01 23:13:08;;;;;;;18.00;13.27;;;;;;;0.73;47.22;99730.84;10419193;28;20239;-61
2023/03/01 23:18:10;;;;;;;17.37;12.93;;;;;;;1.00;46.95;99690.91;10421108;28;20253;-60